sensor_id;sensor_type;location;lat;lon;timestamp;pressure;altitude;pressure_sealevel;temperature;humidity
44044;BME280;29709;52.396;16.796;2024-03-02T00:02:51;100970.80;;;11.80;94.03
44044;BME280;29709;52.396;16.796;2024-03-02T00:06:04;100966.12;;;11.72;94.23
44044;BME280;29709;52.396;16.796;2024-03-02T00:09:18;100965.07;;;11.65;94.76
44044;BME280;29709;52.396;16.796;2024-03-02T00:12:31;100961.81;;;11.62;95.32
44044;BME280;29709;52.396;16.796;2024-03-02T00:19:27;100954.59;;;11.69;95.01
44044;BME280;29709;52.396;16.796;2024-03-02T00:22:40;100950.13;;;11.68;95.86
44044;BME280;29709;52.396;16.796;2024-03-02T00:25:55;100955.64;;;11.68;95.07
44044;BME280;29709;52.396;16.796;2024-03-02T00:29:08;100960.10;;;11.69;95.75
44044;BME280;29709;52.396;16.796;2024-03-02T00:32:26;100957.67;;;11.66;95.92
44044;BME280;29709;52.396;16.796;2024-03-02T00:35:44;100951.66;;;11.62;95.56
44044;BME280;29709;52.396;16.796;2024-03-02T00:38:58;100958.02;;;11.63;95.53
44044;BME280;29709;52.396;16.796;2024-03-02T00:42:11;100957.67;;;11.66;95.92
44044;BME280;29709;52.396;16.796;2024-03-02T00:45:26;100952.70;;;11.69;94.86
44044;BME280;29709;52.396;16.796;2024-03-02T00:52:03;100954.95;;;11.58;96.31
44044;BME280;29709;52.396;16.796;2024-03-02T00:55:16;100954.09;;;11.57;95.70
44044;BME280;29709;52.396;16.796;2024-03-02T00:58:30;100951.14;;;11.50;96.17
44044;BME280;29709;52.396;16.796;2024-03-02T01:01:43;100943.91;;;11.49;96.28
44044;BME280;29709;52.396;16.796;2024-03-02T01:04:56;100941.52;;;11.46;96.69
44044;BME280;29709;52.396;16.796;2024-03-02T01:08:10;100941.66;;;11.45;96.81
44044;BME280;29709;52.396;16.796;2024-03-02T01:11:24;100933.26;;;11.46;96.58
44044;BME280;29709;52.396;16.796;2024-03-02T01:14:37;100942.01;;;11.42;96.94
44044;BME280;29709;52.396;16.796;2024-03-02T01:17:50;100935.48;;;11.43;96.76
44044;BME280;29709;52.396;16.796;2024-03-02T01:21:03;100935.12;;;11.46;96.99
44044;BME280;29709;52.396;16.796;2024-03-02T01:24:17;100937.38;;;11.50;96.76
44044;BME280;29709;52.396;16.796;2024-03-02T01:27:30;100930.34;;;11.48;97.04
44044;BME280;29709;52.396;16.796;2024-03-02T01:30:46;100927.04;;;11.44;96.76
44044;BME280;29709;52.396;16.796;2024-03-02T01:33:59;100922.07;;;11.40;97.01
44044;BME280;29709;52.396;16.796;2024-03-02T01:37:13;100925.50;;;11.42;96.84
44044;BME280;29709;52.396;16.796;2024-03-02T01:40:26;100918.45;;;11.39;96.81
44044;BME280;29709;52.396;16.796;2024-03-02T01:43:39;100911.23;;;11.38;96.63
44044;BME280;29709;52.396;16.796;2024-03-02T01:46:52;100913.81;;;11.40;96.97
44044;BME280;29709;52.396;16.796;2024-03-02T01:50:07;100917.93;;;11.44;97.10
44044;BME280;29709;52.396;16.796;2024-03-02T01:53:21;100913.99;;;11.46;96.81
44044;BME280;29709;52.396;16.796;2024-03-02T01:56:35;100905.03;;;11.44;96.36
44044;BME280;29709;52.396;16.796;2024-03-02T01:59:48;100914.69;;;11.48;95.90
44044;BME280;29709;52.396;16.796;2024-03-02T02:03:03;100910.71;;;11.43;96.10
44044;BME280;29709;52.396;16.796;2024-03-02T02:06:18;100902.30;;;11.36;95.95
44044;BME280;29709;52.396;16.796;2024-03-02T02:09:31;100912.59;;;11.34;96.21
44044;BME280;29709;52.396;16.796;2024-03-02T02:12:44;100901.07;;;11.31;96.46
44044;BME280;29709;52.396;16.796;2024-03-02T02:16:06;100913.44;;;11.35;96.21
44044;BME280;29709;52.396;16.796;2024-03-02T02:19:20;100912.93;;;11.31;96.78
44044;BME280;29709;52.396;16.796;2024-03-02T02:22:33;100913.61;;;11.33;95.93
44044;BME280;29709;52.396;16.796;2024-03-02T02:25:46;100905.72;;;11.30;96.63
44044;BME280;29709;52.396;16.796;2024-03-02T02:32:42;100920.68;;;11.27;96.07
44044;BME280;29709;52.396;16.796;2024-03-02T02:36:01;100915.87;;;11.30;95.92
44044;BME280;29709;52.396;16.796;2024-03-02T02:39:20;100905.52;;;11.23;95.66
44044;BME280;29709;52.396;16.796;2024-03-02T02:42:35;100900.17;;;11.14;96.03
44044;BME280;29709;52.396;16.796;2024-03-02T02:45:48;100919.12;;;11.17;95.71
44044;BME280;29709;52.396;16.796;2024-03-02T02:49:02;100920.47;;;11.13;95.59
44044;BME280;29709;52.396;16.796;2024-03-02T02:52:16;100903.95;;;11.13;95.41
44044;BME280;29709;52.396;16.796;2024-03-02T02:55:29;100914.63;;;11.08;95.39
44044;BME280;29709;52.396;16.796;2024-03-02T02:58:42;100913.39;;;11.02;95.90
44044;BME280;29709;52.396;16.796;2024-03-02T03:01:56;100914.44;;;11.01;95.53
44044;BME280;29709;52.396;16.796;2024-03-02T03:05:13;100910.62;;;10.94;95.16
44044;BME280;29709;52.396;16.796;2024-03-02T03:08:27;100910.45;;;10.87;95.80
44044;BME280;29709;52.396;16.796;2024-03-02T03:11:40;100909.94;;;10.84;95.82
44044;BME280;29709;52.396;16.796;2024-03-02T03:14:56;100907.34;;;10.82;95.78
44044;BME280;29709;52.396;16.796;2024-03-02T03:18:10;100915.27;;;10.85;95.57
44044;BME280;29709;52.396;16.796;2024-03-02T03:21:25;100901.83;;;10.82;95.68
44044;BME280;29709;52.396;16.796;2024-03-02T03:24:44;100889.29;;;10.80;95.55
44044;BME280;29709;52.396;16.796;2024-03-02T03:27:57;100894.45;;;10.75;95.42
44044;BME280;29709;52.396;16.796;2024-03-02T03:31:13;100905.06;;;10.69;96.14
44044;BME280;29709;52.396;16.796;2024-03-02T03:34:34;100905.59;;;10.73;96.21
44044;BME280;29709;52.396;16.796;2024-03-02T03:37:47;100900.77;;;10.67;96.00
44044;BME280;29709;52.396;16.796;2024-03-02T03:41:01;100906.27;;;10.67;95.80
44044;BME280;29709;52.396;16.796;2024-03-02T03:44:14;100899.93;;;10.75;95.96
44044;BME280;29709;52.396;16.796;2024-03-02T03:47:27;100898.56;;;10.79;95.54
44044;BME280;29709;52.396;16.796;2024-03-02T03:50:40;100893.43;;;10.84;95.26
44044;BME280;29709;52.396;16.796;2024-03-02T03:53:53;100896.70;;;10.87;94.85
44044;BME280;29709;52.396;16.796;2024-03-02T03:57:07;100893.96;;;10.87;94.67
44044;BME280;29709;52.396;16.796;2024-03-02T04:00:20;100891.21;;;10.87;94.80
44044;BME280;29709;52.396;16.796;2024-03-02T04:03:33;100891.03;;;10.89;94.44
44044;BME280;29709;52.396;16.796;2024-03-02T04:06:46;100884.84;;;10.87;94.24
44044;BME280;29709;52.396;16.796;2024-03-02T04:09:59;100887.95;;;10.84;94.08
44044;BME280;29709;52.396;16.796;2024-03-02T04:13:12;100891.69;;;10.83;94.34
44044;BME280;29709;52.396;16.796;2024-03-02T04:16:26;100893.43;;;10.84;94.45
44044;BME280;29709;52.396;16.796;2024-03-02T04:19:39;100891.18;;;10.79;94.11
44044;BME280;29709;52.396;16.796;2024-03-02T04:22:52;100897.53;;;10.80;94.27
44044;BME280;29709;52.396;16.796;2024-03-02T04:26:05;100902.69;;;10.83;94.04
44044;BME280;29709;52.396;16.796;2024-03-02T04:29:18;100903.73;;;10.74;93.88
44044;BME280;29709;52.396;16.796;2024-03-02T04:32:31;100898.53;;;10.70;94.23
44044;BME280;29709;52.396;16.796;2024-03-02T04:35:44;100913.52;;;10.76;93.71
44044;BME280;29709;52.396;16.796;2024-03-02T04:38:59;100904.06;;;10.79;93.77
44044;BME280;29709;52.396;16.796;2024-03-02T04:42:12;100913.34;;;10.78;93.93
44044;BME280;29709;52.396;16.796;2024-03-02T04:45:25;100914.55;;;10.83;93.49
44044;BME280;29709;52.396;16.796;2024-03-02T04:48:38;100923.31;;;10.79;93.62
44044;BME280;29709;52.396;16.796;2024-03-02T04:51:51;100926.23;;;10.77;93.63
44044;BME280;29709;52.396;16.796;2024-03-02T04:55:05;100919.52;;;10.80;93.42
44044;BME280;29709;52.396;16.796;2024-03-02T04:58:30;100927.26;;;10.76;93.33
44044;BME280;29709;52.396;16.796;2024-03-02T05:01:44;100932.38;;;10.71;93.64
44044;BME280;29709;52.396;16.796;2024-03-02T05:04:57;100928.98;;;10.77;93.69
44044;BME280;29709;52.396;16.796;2024-03-02T05:08:10;100930.55;;;10.88;93.25
44044;BME280;29709;52.396;16.796;2024-03-02T05:11:25;100933.30;;;10.88;92.36
44044;BME280;29709;52.396;16.796;2024-03-02T05:14:49;100933.11;;;10.81;92.70
44044;BME280;29709;52.396;16.796;2024-03-02T05:18:02;100940.18;;;10.84;92.99
44044;BME280;29709;52.396;16.796;2024-03-02T05:21:18;100938.43;;;10.83;93.17
44044;BME280;29709;52.396;16.796;2024-03-02T05:24:31;100937.09;;;10.87;92.91
44044;BME280;29709;52.396;16.796;2024-03-02T05:27:44;100939.84;;;10.87;92.54
44044;BME280;29709;52.396;16.796;2024-03-02T05:30:58;100946.03;;;10.89;92.99
44044;BME280;29709;52.396;16.796;2024-03-02T05:34:11;100948.09;;;10.87;92.82
44044;BME280;29709;52.396;16.796;2024-03-02T05:37:24;100949.98;;;10.86;92.82
44044;BME280;29709;52.396;16.796;2024-03-02T05:40:37;100944.79;;;10.83;92.22
44044;BME280;29709;52.396;16.796;2024-03-02T05:43:50;100945.81;;;10.74;92.61
44044;BME280;29709;52.396;16.796;2024-03-02T05:47:04;100954.37;;;10.71;92.87
44044;BME280;29709;52.396;16.796;2024-03-02T05:50:17;100958.70;;;10.74;92.91
44044;BME280;29709;52.396;16.796;2024-03-02T05:53:32;100947.50;;;10.67;92.96
44044;BME280;29709;52.396;16.796;2024-03-02T05:56:46;100958.84;;;10.72;92.61
44044;BME280;29709;52.396;16.796;2024-03-02T06:00:00;100946.68;;;10.75;92.48
44044;BME280;29709;52.396;16.796;2024-03-02T06:03:13;100954.06;;;10.74;92.39
44044;BME280;29709;52.396;16.796;2024-03-02T06:06:26;100961.12;;;10.77;92.08
44044;BME280;29709;52.396;16.796;2024-03-02T06:09:40;100964.50;;;10.70;92.06
44044;BME280;29709;52.396;16.796;2024-03-02T06:12:54;100970.86;;;10.71;91.92
44044;BME280;29709;52.396;16.796;2024-03-02T06:16:07;100970.69;;;10.64;92.13
44044;BME280;29709;52.396;16.796;2024-03-02T06:19:21;100982.96;;;10.52;92.35
44044;BME280;29709;52.396;16.796;2024-03-02T06:22:34;100981.41;;;10.50;92.98
44044;BME280;29709;52.396;16.796;2024-03-02T06:25:48;100972.14;;;10.51;93.05
44044;BME280;29709;52.396;16.796;2024-03-02T06:29:01;100982.96;;;10.52;93.00
44044;BME280;29709;52.396;16.796;2024-03-02T06:32:15;100989.18;;;10.54;93.17
44044;BME280;29709;52.396;16.796;2024-03-02T06:35:28;100977.16;;;10.55;93.04
44044;BME280;29709;52.396;16.796;2024-03-02T06:38:42;100996.01;;;10.50;93.32
44044;BME280;29709;52.396;16.796;2024-03-02T06:41:55;100996.87;;;10.51;93.51
44044;BME280;29709;52.396;16.796;2024-03-02T06:45:08;100989.18;;;10.54;93.09
44044;BME280;29709;52.396;16.796;2024-03-02T06:48:22;100987.65;;;10.60;92.89
44044;BME280;29709;52.396;16.796;2024-03-02T06:51:37;100991.09;;;10.62;92.87
44044;BME280;29709;52.396;16.796;2024-03-02T06:54:50;100975.45;;;10.62;93.18
44044;BME280;29709;52.396;16.796;2024-03-02T06:58:03;100969.82;;;10.64;92.86
44044;BME280;29709;52.396;16.796;2024-03-02T07:01:17;100973.95;;;10.68;92.59
44044;BME280;29709;52.396;16.796;2024-03-02T07:04:30;100984.44;;;10.73;92.79
44044;BME280;29709;52.396;16.796;2024-03-02T07:11:33;100991.01;;;10.80;92.20
44044;BME280;29709;52.396;16.796;2024-03-02T07:14:47;100992.04;;;10.79;92.46
44044;BME280;29709;52.396;16.796;2024-03-02T07:18:09;100990.66;;;10.75;92.20
44044;BME280;29709;52.396;16.796;2024-03-02T07:21:22;100992.55;;;10.74;92.30
44044;BME280;29709;52.396;16.796;2024-03-02T07:24:40;101004.11;;;10.86;92.57
44044;BME280;29709;52.396;16.796;2024-03-02T07:27:54;101003.98;;;10.95;92.36
44044;BME280;29709;52.396;16.796;2024-03-02T07:31:07;101016.19;;;11.01;91.86
44044;BME280;29709;52.396;16.796;2024-03-02T07:34:22;101018.77;;;11.03;91.83
44044;BME280;29709;52.396;16.796;2024-03-02T07:37:35;101011.93;;;11.07;91.29
44044;BME280;29709;52.396;16.796;2024-03-02T07:40:49;101014.34;;;11.10;91.22
44044;BME280;29709;52.396;16.796;2024-03-02T07:44:03;101004.88;;;11.12;91.49
44044;BME280;29709;52.396;16.796;2024-03-02T07:47:16;101005.43;;;11.24;91.43
44044;BME280;29709;52.396;16.796;2024-03-02T07:50:30;101005.63;;;11.31;90.84
44044;BME280;29709;52.396;16.796;2024-03-02T07:53:43;101021.62;;;11.35;91.17
44044;BME280;29709;52.396;16.796;2024-03-02T07:56:57;101019.59;;;11.37;90.74
44044;BME280;29709;52.396;16.796;2024-03-02T08:00:11;101029.25;;;11.49;90.92
44044;BME280;29709;52.396;16.796;2024-03-02T08:03:25;101021.16;;;11.56;90.29
44044;BME280;29709;52.396;16.796;2024-03-02T08:06:38;101031.16;;;11.57;90.12
44044;BME280;29709;52.396;16.796;2024-03-02T08:09:51;101029.09;;;11.59;90.29
44044;BME280;29709;52.396;16.796;2024-03-02T08:13:04;101033.06;;;11.73;90.26
44044;BME280;29709;52.396;16.796;2024-03-02T08:16:23;101027.61;;;11.81;89.58
44044;BME280;29709;52.396;16.796;2024-03-02T08:19:38;101023.82;;;11.90;89.45
44044;BME280;29709;52.396;16.796;2024-03-02T08:22:51;101028.45;;;11.98;89.34
44044;BME280;29709;52.396;16.796;2024-03-02T08:26:11;101021.74;;;12.08;89.05
44044;BME280;29709;52.396;16.796;2024-03-02T08:29:24;101033.98;;;12.22;88.57
44044;BME280;29709;52.396;16.796;2024-03-02T08:32:38;101024.13;;;12.36;88.67
44044;BME280;29709;52.396;16.796;2024-03-02T08:35:53;101031.85;;;12.49;87.71
44044;BME280;29709;52.396;16.796;2024-03-02T08:39:06;101025.96;;;12.60;87.67
44044;BME280;29709;52.396;16.796;2024-03-02T08:42:28;101040.97;;;12.65;86.38
44044;BME280;29709;52.396;16.796;2024-03-02T08:45:42;101029.39;;;12.70;86.79
44044;BME280;29709;52.396;16.796;2024-03-02T08:48:55;101033.54;;;12.74;86.75
44044;BME280;29709;52.396;16.796;2024-03-02T08:52:08;101029.17;;;12.88;86.77
44044;BME280;29709;52.396;16.796;2024-03-02T08:55:22;101029.66;;;12.91;85.93
44044;BME280;29709;52.396;16.796;2024-03-02T08:58:35;101034.13;;;13.00;85.79
44044;BME280;29709;52.396;16.796;2024-03-02T09:01:48;101035.11;;;13.16;85.73
44044;BME280;29709;52.396;16.796;2024-03-02T09:05:01;101033.51;;;13.29;84.98
44044;BME280;29709;52.396;16.796;2024-03-02T09:08:15;101031.38;;;13.40;84.42
44044;BME280;29709;52.396;16.796;2024-03-02T09:11:28;101021.86;;;13.42;83.81
44044;BME280;29709;52.396;16.796;2024-03-02T09:14:41;101029.96;;;13.44;83.36
44044;BME280;29709;52.396;16.796;2024-03-02T09:17:55;101031.98;;;13.58;82.90
44044;BME280;29709;52.396;16.796;2024-03-02T09:21:08;101031.93;;;13.66;83.08
44044;BME280;29709;52.396;16.796;2024-03-02T09:24:21;101033.27;;;13.70;81.93
44044;BME280;29709;52.396;16.796;2024-03-02T09:27:38;101035.41;;;13.83;81.73
44044;BME280;29709;52.396;16.796;2024-03-02T09:30:52;101031.48;;;14.00;81.42
44044;BME280;29709;52.396;16.796;2024-03-02T09:34:05;101023.40;;;13.99;81.03
44044;BME280;29709;52.396;16.796;2024-03-02T09:37:18;101024.86;;;14.09;81.00
44044;BME280;29709;52.396;16.796;2024-03-02T09:40:31;101028.89;;;14.22;80.56
44044;BME280;29709;52.396;16.796;2024-03-02T09:43:45;101031.02;;;14.34;79.87
44044;BME280;29709;52.396;16.796;2024-03-02T09:46:58;101031.09;;;14.49;79.88
44044;BME280;29709;52.396;16.796;2024-03-02T09:50:11;101031.68;;;14.59;78.25
44044;BME280;29709;52.396;16.796;2024-03-02T09:53:25;101028.14;;;14.65;78.51
44044;BME280;29709;52.396;16.796;2024-03-02T09:56:44;101034.83;;;14.86;78.53
44044;BME280;29709;52.396;16.796;2024-03-02T09:59:58;101035.02;;;15.14;78.25
44044;BME280;29709;52.396;16.796;2024-03-02T10:10:20;101053.46;;;15.57;75.11
44044;BME280;29709;52.396;16.796;2024-03-02T10:13:33;101041.91;;;15.54;74.45
44044;BME280;29709;52.396;16.796;2024-03-02T10:16:47;101048.98;;;15.56;73.42
44044;BME280;29709;52.396;16.796;2024-03-02T10:23:25;101040.77;;;15.48;74.13
44044;BME280;29709;52.396;16.796;2024-03-02T10:26:41;101041.16;;;15.60;74.03
44044;BME280;29709;52.396;16.796;2024-03-02T10:29:55;101036.48;;;15.61;71.55
44044;BME280;29709;52.396;16.796;2024-03-02T10:33:08;101044.58;;;15.62;72.86
44044;BME280;29709;52.396;16.796;2024-03-02T10:36:22;101034.05;;;15.72;72.60
44044;BME280;29709;52.396;16.796;2024-03-02T10:39:35;101035.12;;;15.93;72.05
44044;BME280;29709;52.396;16.796;2024-03-02T10:42:52;101026.55;;;16.09;72.00
44044;BME280;29709;52.396;16.796;2024-03-02T10:46:06;101014.91;;;16.20;72.16
44044;BME280;29709;52.396;16.796;2024-03-02T10:49:20;101019.35;;;16.42;72.44
44044;BME280;29709;52.396;16.796;2024-03-02T10:52:35;101020.28;;;16.50;70.54
44044;BME280;29709;52.396;16.796;2024-03-02T10:55:58;101013.81;;;16.42;69.80
44044;BME280;29709;52.396;16.796;2024-03-02T11:02:50;101012.37;;;16.47;70.13
44044;BME280;29709;52.396;16.796;2024-03-02T11:06:07;101004.98;;;16.32;68.92
44044;BME280;29709;52.396;16.796;2024-03-02T11:09:26;101005.26;;;16.37;69.12
44044;BME280;29709;52.396;16.796;2024-03-02T11:12:52;101002.51;;;16.44;68.37
44044;BME280;29709;52.396;16.796;2024-03-02T11:16:12;101006.41;;;16.50;69.27
44044;BME280;29709;52.396;16.796;2024-03-02T11:19:26;101006.55;;;16.41;69.06
44044;BME280;29709;52.396;16.796;2024-03-02T11:22:40;101003.78;;;16.41;69.95
44044;BME280;29709;52.396;16.796;2024-03-02T11:25:54;101002.37;;;16.52;69.03
44044;BME280;29709;52.396;16.796;2024-03-02T11:32:36;101005.93;;;16.46;68.08
44044;BME280;29709;52.396;16.796;2024-03-02T11:35:49;101007.20;;;16.43;69.94
44044;BME280;29709;52.396;16.796;2024-03-02T11:39:02;101006.64;;;16.55;68.54
44044;BME280;29709;52.396;16.796;2024-03-02T11:42:17;100994.04;;;16.52;67.83
44044;BME280;29709;52.396;16.796;2024-03-02T11:45:31;101000.38;;;16.46;68.34
44044;BME280;29709;52.396;16.796;2024-03-02T11:48:51;100998.65;;;16.38;67.79
44044;BME280;29709;52.396;16.796;2024-03-02T11:52:06;101004.42;;;16.43;68.01
44044;BME280;29709;52.396;16.796;2024-03-02T11:55:22;101002.65;;;16.36;69.42
44044;BME280;29709;52.396;16.796;2024-03-02T11:58:37;101002.86;;;16.34;68.17
44044;BME280;29709;52.396;16.796;2024-03-02T12:01:51;101001.35;;;16.32;69.57
44044;BME280;29709;52.396;16.796;2024-03-02T12:05:05;100999.94;;;16.42;69.04
44044;BME280;29709;52.396;16.796;2024-03-02T12:08:18;100995.30;;;16.50;68.52
44044;BME280;29709;52.396;16.796;2024-03-02T12:11:32;101005.79;;;16.54;68.00
44044;BME280;29709;52.396;16.796;2024-03-02T12:14:50;101002.06;;;16.40;67.43
44044;BME280;29709;52.396;16.796;2024-03-02T12:18:08;100998.17;;;16.35;68.49
44044;BME280;29709;52.396;16.796;2024-03-02T12:21:23;101002.86;;;16.34;68.99
44044;BME280;29709;52.396;16.796;2024-03-02T12:24:36;100994.53;;;16.34;69.46
44044;BME280;29709;52.396;16.796;2024-03-02T12:27:56;100998.58;;;16.32;70.21
44044;BME280;29709;52.396;16.796;2024-03-02T12:31:10;101004.98;;;16.32;69.51
44044;BME280;29709;52.396;16.796;2024-03-02T12:34:24;100996.95;;;16.44;68.96
44044;BME280;29709;52.396;16.796;2024-03-02T12:37:43;101001.30;;;16.53;69.82
44044;BME280;29709;52.396;16.796;2024-03-02T12:40:57;100993.63;;;16.55;69.07
44044;BME280;29709;52.396;16.796;2024-03-02T12:44:10;100994.48;;;16.56;69.78
44044;BME280;29709;52.396;16.796;2024-03-02T12:47:24;100995.55;;;16.55;69.51
44044;BME280;29709;52.396;16.796;2024-03-02T12:50:37;100989.34;;;16.53;69.08
44044;BME280;29709;52.396;16.796;2024-03-02T12:53:54;100986.78;;;16.51;69.23
44044;BME280;29709;52.396;16.796;2024-03-02T12:57:08;101000.21;;;16.48;68.86
44044;BME280;29709;52.396;16.796;2024-03-02T13:00:21;100994.60;;;16.41;69.83
44044;BME280;29709;52.396;16.796;2024-03-02T13:03:36;100992.95;;;16.47;68.77
44044;BME280;29709;52.396;16.796;2024-03-02T13:06:50;100992.77;;;16.55;69.94
44044;BME280;29709;52.396;16.796;2024-03-02T13:10:06;100994.98;;;16.66;69.78
44044;BME280;29709;52.396;16.796;2024-03-02T13:13:21;100994.12;;;16.65;69.29
44044;BME280;29709;52.396;16.796;2024-03-02T13:16:40;100990.70;;;16.63;68.71
44044;BME280;29709;52.396;16.796;2024-03-02T13:19:58;100999.97;;;16.70;69.79
44044;BME280;29709;52.396;16.796;2024-03-02T13:23:12;100993.41;;;16.78;68.23
44044;BME280;29709;52.396;16.796;2024-03-02T13:26:25;100986.79;;;16.79;68.66
44044;BME280;29709;52.396;16.796;2024-03-02T13:29:38;100992.57;;;16.84;68.00
44044;BME280;29709;52.396;16.796;2024-03-02T13:32:52;100995.13;;;16.86;68.02
44044;BME280;29709;52.396;16.796;2024-03-02T13:36:08;100994.92;;;16.87;67.48
44044;BME280;29709;52.396;16.796;2024-03-02T13:39:22;100989.58;;;16.86;66.23
44044;BME280;29709;52.396;16.796;2024-03-02T13:42:36;100990.21;;;16.81;64.98
44044;BME280;29709;52.396;16.796;2024-03-02T13:45:50;100994.64;;;16.76;64.83
44044;BME280;29709;52.396;16.796;2024-03-02T13:49:06;100993.14;;;16.73;64.60
44044;BME280;29709;52.396;16.796;2024-03-02T13:52:19;100999.97;;;16.70;63.84
44044;BME280;29709;52.396;16.796;2024-03-02T13:55:33;100996.34;;;16.70;64.22
44044;BME280;29709;52.396;16.796;2024-03-02T13:58:46;100996.13;;;16.71;64.05
44044;BME280;29709;52.396;16.796;2024-03-02T14:01:59;101002.24;;;16.67;62.98
44044;BME280;29709;52.396;16.796;2024-03-02T14:05:13;100990.59;;;16.71;64.25
44044;BME280;29709;52.396;16.796;2024-03-02T14:08:26;100997.20;;;16.77;63.42
44044;BME280;29709;52.396;16.796;2024-03-02T14:11:40;100993.14;;;16.73;63.72
44044;BME280;29709;52.396;16.796;2024-03-02T14:14:53;100993.36;;;16.71;65.24
44044;BME280;29709;52.396;16.796;2024-03-02T14:18:10;100990.48;;;16.65;66.09
44044;BME280;29709;52.396;16.796;2024-03-02T14:21:24;100984.05;;;16.58;66.15
44044;BME280;29709;52.396;16.796;2024-03-02T14:24:37;100989.05;;;16.41;66.67
44044;BME280;29709;52.396;16.796;2024-03-02T14:27:50;100988.41;;;16.39;67.08
44044;BME280;29709;52.396;16.796;2024-03-02T14:31:04;100989.11;;;16.48;67.75
44044;BME280;29709;52.396;16.796;2024-03-02T14:34:17;100987.43;;;16.53;67.05
44044;BME280;29709;52.396;16.796;2024-03-02T14:37:30;100978.69;;;16.56;67.89
44044;BME280;29709;52.396;16.796;2024-03-02T14:40:43;100989.61;;;16.58;67.51
44044;BME280;29709;52.396;16.796;2024-03-02T14:43:56;100987.43;;;16.53;68.08
44044;BME280;29709;52.396;16.796;2024-03-02T14:47:10;100985.36;;;16.34;65.99
44044;BME280;29709;52.396;16.796;2024-03-02T14:50:23;100987.62;;;16.24;66.94
44044;BME280;29709;52.396;16.796;2024-03-02T14:53:36;100995.29;;;16.22;67.55
44044;BME280;29709;52.396;16.796;2024-03-02T14:56:50;100991.01;;;16.19;68.34
44044;BME280;29709;52.396;16.796;2024-03-02T15:00:06;100994.64;;;16.20;67.43
44044;BME280;29709;52.396;16.796;2024-03-02T15:03:20;100989.02;;;16.13;68.14
44044;BME280;29709;52.396;16.796;2024-03-02T15:06:33;100982.84;;;16.11;68.11
44044;BME280;29709;52.396;16.796;2024-03-02T15:09:46;100983.81;;;16.03;68.04
44044;BME280;29709;52.396;16.796;2024-03-02T15:13:00;100987.33;;;15.91;68.51
44044;BME280;29709;52.396;16.796;2024-03-02T15:16:13;100987.95;;;15.86;69.51
44044;BME280;29709;52.396;16.796;2024-03-02T15:19:26;100987.09;;;15.85;69.39
44044;BME280;29709;52.396;16.796;2024-03-02T15:22:40;100983.47;;;15.85;68.65
44044;BME280;29709;52.396;16.796;2024-03-02T15:25:54;100986.23;;;15.85;68.89
44044;BME280;29709;52.396;16.796;2024-03-02T15:29:07;100982.41;;;15.86;69.56
44044;BME280;29709;52.396;16.796;2024-03-02T15:32:20;100984.36;;;15.92;68.84
44044;BME280;29709;52.396;16.796;2024-03-02T15:35:34;100980.07;;;15.90;68.98
44044;BME280;29709;52.396;16.796;2024-03-02T15:38:47;100984.32;;;15.85;69.74
44044;BME280;29709;52.396;16.796;2024-03-02T15:42:01;100981.55;;;15.85;69.37
44044;BME280;29709;52.396;16.796;2024-03-02T15:45:17;100979.76;;;15.78;68.68
44044;BME280;29709;52.396;16.796;2024-03-02T15:48:31;100989.13;;;15.77;69.27
44044;BME280;29709;52.396;16.796;2024-03-02T15:51:45;100987.54;;;15.68;69.40
44044;BME280;29709;52.396;16.796;2024-03-02T15:54:58;100992.71;;;15.56;70.29
44044;BME280;29709;52.396;16.796;2024-03-02T15:58:12;100993.48;;;15.50;70.59
44044;BME280;29709;52.396;16.796;2024-03-02T16:01:25;100988.05;;;15.42;71.11
44044;BME280;29709;52.396;16.796;2024-03-02T16:04:38;100992.08;;;15.39;71.80
44044;BME280;29709;52.396;16.796;2024-03-02T16:07:52;100993.04;;;15.31;72.81
44044;BME280;29709;52.396;16.796;2024-03-02T16:11:05;100994.51;;;15.27;73.07
44044;BME280;29709;52.396;16.796;2024-03-02T16:14:18;100999.19;;;15.27;73.85
44044;BME280;29709;52.396;16.796;2024-03-02T16:17:32;100994.91;;;15.24;73.68
44044;BME280;29709;52.396;16.796;2024-03-02T16:20:45;100992.13;;;15.24;74.41
44044;BME280;29709;52.396;16.796;2024-03-02T16:23:58;101002.71;;;15.21;74.18
44044;BME280;29709;52.396;16.796;2024-03-02T16:27:11;101000.94;;;15.13;74.67
44044;BME280;29709;52.396;16.796;2024-03-02T16:30:24;100999.32;;;15.04;75.70
44044;BME280;29709;52.396;16.796;2024-03-02T16:33:38;100992.83;;;14.97;75.69
44044;BME280;29709;52.396;16.796;2024-03-02T16:36:51;100998.56;;;14.95;76.40
44044;BME280;29709;52.396;16.796;2024-03-02T16:40:05;100994.63;;;14.90;76.57
44044;BME280;29709;52.396;16.796;2024-03-02T16:50:31;101001.44;;;14.72;76.63
44044;BME280;29709;52.396;16.796;2024-03-02T16:53:44;100999.81;;;14.63;77.44
44044;BME280;29709;52.396;16.796;2024-03-02T16:56:58;101002.77;;;14.62;77.93
44044;BME280;29709;52.396;16.796;2024-03-02T17:00:11;101003.63;;;14.62;77.34
44044;BME280;29709;52.396;16.796;2024-03-02T17:03:26;101013.33;;;14.58;77.92
44044;BME280;29709;52.396;16.796;2024-03-02T17:06:39;101000.28;;;14.52;77.83
44044;BME280;29709;52.396;16.796;2024-03-02T17:09:53;101008.47;;;14.46;78.84
44044;BME280;29709;52.396;16.796;2024-03-02T17:13:10;101001.45;;;14.35;79.11
44044;BME280;29709;52.396;16.796;2024-03-02T17:16:24;101000.60;;;14.34;79.28
44044;BME280;29709;52.396;16.796;2024-03-02T17:19:37;100999.54;;;14.35;79.09
44044;BME280;29709;52.396;16.796;2024-03-02T17:22:50;101000.91;;;14.39;79.32